PWSweather.com
Personal Weather Stations
Station Observations
VPOKROGLO
Kal Nad Kanalom, PrimorskaSI

Kal Nad KanalomPrimorskaSI

Lat: 46.072, Lon: 13.734

Elevation: 2526

Station Type: WS-2355

http://www.okroglovreme.com

Latest ConditionsUpdated 9:15:01 PM GMT+01:01 Tuesday, Feb 9, 2016
Currently Today's Max Today's Min Today's Average
Temperature 42.1°F5.6°C 43.7°F6.5°C 39.9°F4.4°C 41.9°F5.5°C
Dew Point 38.5°F3.6°C 41.1°F5.1°C 37.5°F3.1°C 39.3°F4.1°C
Winds 12.4 mph S20.0 kmh S 13.4 mph S21.6 kmh S - 7.1 mph 11.4 kmh
Wind Gusts 21.5 mph34.6 kmh 21.9 mph35.2 kmh - -
Humidity 87% 91% 87% 91%
Pressure 29.71 in1006.1 mb 30.08 in1018.6 mb 29.71 in1006.1 mb -
Precipitation - 0.41 in10.4 mm - -
Hour Temp Dew Point Humidity Winds Wind Gusts Pressure Precip Precip Rate Daily Precip Total
09:15 PM 42.1°F5.6°C 38.5°F3.6°C 87% 12.4 mph S20.0 kmh S 21.5 mph34.6 kmh 29.71 in1006.1 mb 0.16 in4.1 mm 0.08 in2.0 mm 0.41 in10.4 mm
09:00 PM 42.6°F5.9°C 39.0°F3.9°C 87% 13.1 mph S21.1 kmh S 19.0 mph30.6 kmh 29.72 in1006.4 mb 0.14 in3.6 mm 0.05 in1.3 mm 0.37 in9.4 mm
08:45 PM 42.8°F6.0°C 39.2°F4.0°C 87% 12.2 mph S19.6 kmh S 21.9 mph35.2 kmh 29.72 in1006.4 mb 0.10 in2.5 mm 0.00 in0.0 mm 0.33 in8.4 mm
08:30 PM 43.0°F6.1°C 39.7°F4.3°C 88% 11.1 mph S17.9 kmh S 21.5 mph34.6 kmh 29.73 in1006.8 mb 0.10 in2.5 mm 0.00 in0.0 mm 0.29 in7.4 mm
08:15 PM 43.2°F6.2°C 39.8°F4.3°C 88% 10.5 mph S16.9 kmh S 18.3 mph29.5 kmh 29.74 in1007.1 mb 0.10 in2.5 mm 0.00 in0.0 mm 0.24 in6.1 mm
08:00 PM 43.0°F6.1°C 40.0°F4.4°C 89% 8.9 mph S14.3 kmh S 13.0 mph20.9 kmh 29.74 in1007.1 mb 0.10 in2.5 mm 0.00 in0.0 mm 0.22 in5.6 mm
07:45 PM 43.0°F6.1°C 40.0°F4.4°C 89% 7.9 mph SSW12.7 kmh SSW 13.9 mph22.4 kmh 29.75 in1007.5 mb 0.14 in3.6 mm 0.08 in2.0 mm 0.22 in5.6 mm
07:30 PM 43.3°F6.3°C 40.0°F4.4°C 88% 11.6 mph SSW18.7 kmh SSW 18.3 mph29.5 kmh 29.76 in1007.8 mb 0.12 in3.0 mm 0.16 in4.1 mm 0.18 in4.6 mm
07:15 PM 43.2°F6.2°C 39.8°F4.3°C 88% 10.5 mph S16.9 kmh S 20.4 mph32.8 kmh 29.77 in1008.1 mb 0.08 in2.0 mm 0.08 in2.0 mm 0.14 in3.6 mm
07:00 PM 43.3°F6.3°C 40.0°F4.4°C 88% 10.3 mph S16.6 kmh S 21.5 mph34.6 kmh 29.78 in1008.5 mb 0.06 in1.5 mm 0.05 in1.3 mm 0.12 in3.0 mm
06:45 PM 43.5°F6.4°C 40.2°F4.6°C 88% 9.9 mph S15.9 kmh S 16.6 mph26.7 kmh 29.79 in1008.8 mb 0.02 in0.5 mm 0.08 in2.0 mm 0.08 in2.0 mm
06:30 PM 43.7°F6.5°C 40.7°F4.8°C 89% 7.8 mph S12.6 kmh S 11.6 mph18.7 kmh 29.80 in1009.1 mb 0.00 in0.0 mm 0.00 in0.0 mm 0.06 in1.5 mm
06:15 PM 43.5°F6.4°C 40.8°F4.9°C 90% 8.7 mph SSW14.0 kmh SSW 16.8 mph27.0 kmh 29.81 in1009.5 mb 0.02 in0.5 mm 0.00 in0.0 mm 0.06 in1.5 mm
06:00 PM 43.5°F6.4°C 40.8°F4.9°C 90% 10.6 mph S17.1 kmh S 18.3 mph29.5 kmh 29.82 in1009.8 mb 0.02 in0.5 mm 0.00 in0.0 mm 0.06 in1.5 mm
05:45 PM 43.5°F6.4°C 41.1°F5.1°C 91% 10.5 mph S16.9 kmh S 19.0 mph30.6 kmh 29.82 in1009.8 mb 0.02 in0.5 mm 0.00 in0.0 mm 0.06 in1.5 mm
05:30 PM 43.5°F6.4°C 41.1°F5.1°C 91% 12.7 mph S20.4 kmh S 16.8 mph27.0 kmh 29.84 in1010.5 mb 0.02 in0.5 mm 0.08 in2.0 mm 0.06 in1.5 mm
05:15 PM 43.3°F6.3°C 40.9°F4.9°C 91% 12.9 mph S20.8 kmh S 18.6 mph29.9 kmh 29.85 in1010.8 mb 0.00 in0.0 mm 0.00 in0.0 mm 0.04 in1.0 mm
05:00 PM 43.2°F6.2°C 40.7°F4.8°C 91% 9.8 mph SSW15.8 kmh SSW 16.8 mph27.0 kmh 29.85 in1010.8 mb 0.00 in0.0 mm 0.00 in0.0 mm 0.04 in1.0 mm
04:45 PM 43.2°F6.2°C 40.7°F4.8°C 91% 11.4 mph S18.3 kmh S 18.1 mph29.1 kmh 29.86 in1011.2 mb 0.00 in0.0 mm 0.00 in0.0 mm 0.04 in1.0 mm
04:30 PM 43.2°F6.2°C 40.7°F4.8°C 91% 11.3 mph S18.2 kmh S 15.9 mph25.6 kmh 29.87 in1011.5 mb 0.00 in0.0 mm 0.00 in0.0 mm 0.04 in1.0 mm
04:15 PM 43.2°F6.2°C 40.7°F4.8°C 91% 10.2 mph SSW16.4 kmh SSW 15.9 mph25.6 kmh 29.87 in1011.5 mb 0.00 in0.0 mm 0.00 in0.0 mm 0.04 in1.0 mm
04:00 PM 43.2°F6.2°C 40.7°F4.8°C 91% 11.6 mph S18.7 kmh S 15.4 mph24.8 kmh 29.88 in1011.9 mb 0.02 in0.5 mm 0.00 in0.0 mm 0.04 in1.0 mm
03:45 PM 43.2°F6.2°C 40.7°F4.8°C 91% 11.4 mph S18.3 kmh S 16.8 mph27.0 kmh 29.89 in1012.2 mb 0.02 in0.5 mm 0.00 in0.0 mm 0.04 in1.0 mm
03:30 PM 43.2°F6.2°C 40.7°F4.8°C 91% 13.4 mph S21.6 kmh S 19.0 mph30.6 kmh 29.90 in1012.5 mb 0.02 in0.5 mm 0.00 in0.0 mm 0.04 in1.0 mm
03:15 PM 43.2°F6.2°C 40.7°F4.8°C 91% 10.8 mph S17.4 kmh S 17.2 mph27.7 kmh 29.91 in1012.9 mb 0.02 in0.5 mm 0.08 in2.0 mm 0.04 in1.0 mm
03:00 PM 43.0°F6.1°C 40.5°F4.7°C 91% 11.2 mph S18.0 kmh S 18.1 mph29.1 kmh 29.92 in1013.2 mb 0.00 in0.0 mm 0.00 in0.0 mm 0.02 in0.5 mm
02:45 PM 43.0°F6.1°C 40.5°F4.7°C 91% 10.0 mph SSW16.1 kmh SSW 16.3 mph26.2 kmh 29.93 in1013.5 mb 0.00 in0.0 mm 0.00 in0.0 mm 0.02 in0.5 mm
02:30 PM 43.0°F6.1°C 40.5°F4.7°C 91% 10.3 mph SSW16.6 kmh SSW 16.1 mph25.9 kmh 29.94 in1013.9 mb 0.00 in0.0 mm 0.00 in0.0 mm 0.02 in0.5 mm
02:15 PM 43.0°F6.1°C 40.5°F4.7°C 91% 8.6 mph S13.8 kmh S 13.2 mph21.2 kmh 29.94 in1013.9 mb 0.00 in0.0 mm 0.00 in0.0 mm 0.02 in0.5 mm
02:00 PM 43.0°F6.1°C 40.5°F4.7°C 91% 9.1 mph SSW14.6 kmh SSW 14.5 mph23.3 kmh 29.96 in1014.6 mb 0.00 in0.0 mm 0.00 in0.0 mm 0.02 in0.5 mm
01:45 PM 42.6°F5.9°C 40.2°F4.6°C 91% 9.4 mph SSW15.1 kmh SSW 15.9 mph25.6 kmh 29.96 in1014.6 mb 0.00 in0.0 mm 0.00 in0.0 mm 0.02 in0.5 mm
01:30 PM 42.6°F5.9°C 40.2°F4.6°C 91% 9.6 mph S15.4 kmh S 15.9 mph25.6 kmh 29.97 in1014.9 mb 0.00 in0.0 mm 0.00 in0.0 mm 0.02 in0.5 mm
01:15 PM 43.0°F6.1°C 40.5°F4.7°C 91% 9.5 mph S15.3 kmh S 15.0 mph24.1 kmh 29.98 in1015.2 mb 0.00 in0.0 mm 0.00 in0.0 mm 0.02 in0.5 mm
01:00 PM 42.6°F5.9°C 40.2°F4.6°C 91% 8.7 mph S14.0 kmh S 17.2 mph27.7 kmh 29.99 in1015.6 mb 0.00 in0.0 mm 0.00 in0.0 mm 0.02 in0.5 mm
12:45 PM 42.6°F5.9°C 40.2°F4.6°C 91% 9.5 mph S15.3 kmh S 16.6 mph26.7 kmh 30.01 in1016.3 mb 0.00 in0.0 mm 0.00 in0.0 mm 0.02 in0.5 mm
12:30 PM 42.6°F5.9°C 40.2°F4.6°C 91% 9.0 mph S14.5 kmh S 16.3 mph26.2 kmh 30.02 in1016.6 mb 0.00 in0.0 mm 0.00 in0.0 mm 0.02 in0.5 mm
12:15 PM 42.4°F5.8°C 40.0°F4.4°C 91% 8.2 mph SSW13.2 kmh SSW 16.3 mph26.2 kmh 30.02 in1016.6 mb 0.00 in0.0 mm 0.00 in0.0 mm 0.02 in0.5 mm
12:00 PM 42.4°F5.8°C 40.0°F4.4°C 91% 7.8 mph SW12.6 kmh SW 11.9 mph19.2 kmh 30.03 in1016.9 mb 0.00 in0.0 mm 0.00 in0.0 mm 0.02 in0.5 mm
11:45 AM 42.4°F5.8°C 40.0°F4.4°C 91% 6.6 mph S10.6 kmh S 11.2 mph18.0 kmh 30.04 in1017.3 mb 0.00 in0.0 mm 0.00 in0.0 mm 0.02 in0.5 mm
11:30 AM 42.4°F5.8°C 40.0°F4.4°C 91% 4.3 mph SSW6.9 kmh SSW 8.3 mph13.4 kmh 30.04 in1017.3 mb 0.00 in0.0 mm 0.00 in0.0 mm 0.02 in0.5 mm
11:15 AM 42.4°F5.8°C 40.0°F4.4°C 91% 3.0 mph SW4.8 kmh SW 5.4 mph8.7 kmh 30.05 in1017.6 mb 0.00 in0.0 mm 0.00 in0.0 mm 0.02 in0.5 mm
11:00 AM 42.4°F5.8°C 40.0°F4.4°C 91% 2.7 mph SSW4.3 kmh SSW 5.4 mph8.7 kmh 30.05 in1017.6 mb 0.00 in0.0 mm 0.00 in0.0 mm 0.02 in0.5 mm
10:45 AM 42.3°F5.7°C 39.8°F4.3°C 91% 3.9 mph SSW6.3 kmh SSW 6.5 mph10.5 kmh 30.04 in1017.3 mb 0.00 in0.0 mm 0.00 in0.0 mm 0.02 in0.5 mm
10:30 AM 42.1°F5.6°C 39.6°F4.2°C 91% 6.0 mph S9.7 kmh S 10.1 mph16.3 kmh 30.05 in1017.6 mb 0.00 in0.0 mm 0.00 in0.0 mm 0.02 in0.5 mm
10:15 AM 42.1°F5.6°C 39.6°F4.2°C 91% 7.2 mph S11.6 kmh S 13.4 mph21.6 kmh 30.05 in1017.6 mb 0.00 in0.0 mm 0.00 in0.0 mm 0.02 in0.5 mm
10:00 AM 41.9°F5.5°C 39.5°F4.2°C 91% 5.9 mph SSW9.5 kmh SSW 10.5 mph16.9 kmh 30.05 in1017.6 mb 0.00 in0.0 mm 0.00 in0.0 mm 0.02 in0.5 mm
09:45 AM 41.7°F5.4°C 39.3°F4.1°C 91% 7.4 mph SSW11.9 kmh SSW 11.0 mph17.7 kmh 30.06 in1017.9 mb 0.00 in0.0 mm 0.00 in0.0 mm 0.02 in0.5 mm
09:30 AM 41.7°F5.4°C 39.3°F4.1°C 91% 5.9 mph SSW9.5 kmh SSW 13.0 mph20.9 kmh 30.06 in1017.9 mb 0.00 in0.0 mm 0.00 in0.0 mm 0.02 in0.5 mm
09:15 AM 41.5°F5.3°C 39.1°F3.9°C 91% 7.0 mph SSW11.3 kmh SSW 11.9 mph19.2 kmh 30.06 in1017.9 mb 0.00 in0.0 mm 0.00 in0.0 mm 0.02 in0.5 mm
09:00 AM 41.4°F5.2°C 38.9°F3.8°C 91% 4.6 mph SSW7.4 kmh SSW 8.5 mph13.7 kmh 30.06 in1017.9 mb 0.00 in0.0 mm 0.00 in0.0 mm 0.02 in0.5 mm
08:45 AM 41.2°F5.1°C 38.8°F3.8°C 91% 4.2 mph SW6.8 kmh SW 9.8 mph15.8 kmh 30.07 in1018.3 mb 0.00 in0.0 mm 0.00 in0.0 mm 0.02 in0.5 mm
08:30 AM 41.2°F5.1°C 38.8°F3.8°C 91% 4.4 mph SSW7.1 kmh SSW 8.3 mph13.4 kmh 30.07 in1018.3 mb 0.02 in0.5 mm 0.00 in0.0 mm 0.02 in0.5 mm
08:15 AM 41.2°F5.1°C 38.8°F3.8°C 91% 4.6 mph SW7.4 kmh SW 7.4 mph11.9 kmh 30.07 in1018.3 mb 0.02 in0.5 mm 0.00 in0.0 mm 0.02 in0.5 mm
08:00 AM 41.0°F5.0°C 38.6°F3.7°C 91% 2.3 mph SW3.7 kmh SW 4.5 mph7.2 kmh 30.07 in1018.3 mb 0.02 in0.5 mm 0.03 in0.8 mm 0.02 in0.5 mm
07:45 AM 41.0°F5.0°C 38.6°F3.7°C 91% 4.0 mph SSW6.4 kmh SSW 6.7 mph10.8 kmh 30.08 in1018.6 mb 0.00 in0.0 mm 0.00 in0.0 mm 0.00 in0.0 mm
07:30 AM 40.8°F4.9°C 38.4°F3.6°C 91% 4.4 mph SSW7.1 kmh SSW 7.6 mph12.2 kmh 30.07 in1018.3 mb 0.00 in0.0 mm 0.00 in0.0 mm 0.00 in0.0 mm
07:15 AM 40.8°F4.9°C 38.4°F3.6°C 91% 3.4 mph SW5.5 kmh SW 5.8 mph9.3 kmh 30.07 in1018.3 mb 0.00 in0.0 mm 0.00 in0.0 mm 0.00 in0.0 mm
07:00 AM 40.8°F4.9°C 38.4°F3.6°C 91% 4.2 mph SSW6.8 kmh SSW 9.8 mph15.8 kmh 30.07 in1018.3 mb 0.00 in0.0 mm 0.00 in0.0 mm 0.00 in0.0 mm
06:45 AM 40.6°F4.8°C 38.2°F3.4°C 91% 5.1 mph S8.2 kmh S 8.7 mph14.0 kmh 30.07 in1018.3 mb 0.00 in0.0 mm 0.00 in0.0 mm 0.00 in0.0 mm
06:30 AM 40.3°F4.6°C 37.9°F3.3°C 91% 2.5 mph WSW4.0 kmh WSW 5.4 mph8.7 kmh 30.06 in1017.9 mb 0.00 in0.0 mm 0.00 in0.0 mm 0.00 in0.0 mm
06:15 AM 40.1°F4.5°C 37.7°F3.2°C 91% 2.8 mph WSW4.5 kmh WSW 6.9 mph11.1 kmh 30.06 in1017.9 mb 0.00 in0.0 mm 0.00 in0.0 mm 0.00 in0.0 mm
06:00 AM 40.1°F4.5°C 37.7°F3.2°C 91% 3.9 mph SW6.3 kmh SW 6.3 mph10.1 kmh 30.06 in1017.9 mb 0.00 in0.0 mm 0.00 in0.0 mm 0.00 in0.0 mm
05:45 AM 39.9°F4.4°C 37.5°F3.1°C 91% 4.5 mph SSW7.2 kmh SSW 7.8 mph12.6 kmh 30.07 in1018.3 mb 0.00 in0.0 mm 0.00 in0.0 mm 0.00 in0.0 mm
05:30 AM 39.9°F4.4°C 37.5°F3.1°C 91% 3.7 mph S6.0 kmh S 6.9 mph11.1 kmh 30.07 in1018.3 mb 0.00 in0.0 mm 0.00 in0.0 mm 0.00 in0.0 mm
05:15 AM 39.9°F4.4°C 37.5°F3.1°C 91% 4.1 mph SSW6.6 kmh SSW 6.5 mph10.5 kmh 30.06 in1017.9 mb 0.00 in0.0 mm 0.00 in0.0 mm 0.00 in0.0 mm
05:00 AM 39.9°F4.4°C 37.5°F3.1°C 91% 5.1 mph S8.2 kmh S 8.3 mph13.4 kmh 30.07 in1018.3 mb 0.00 in0.0 mm 0.00 in0.0 mm 0.00 in0.0 mm
04:45 AM 40.1°F4.5°C 37.7°F3.2°C 91% 5.6 mph SSW9.0 kmh SSW 10.1 mph16.3 kmh 30.07 in1018.3 mb 0.00 in0.0 mm 0.00 in0.0 mm 0.00 in0.0 mm
04:30 AM 40.1°F4.5°C 37.7°F3.2°C 91% 4.9 mph SSW7.9 kmh SSW 8.5 mph13.7 kmh 30.07 in1018.3 mb 0.00 in0.0 mm 0.00 in0.0 mm 0.00 in0.0 mm
04:15 AM 40.1°F4.5°C 37.7°F3.2°C 91% 5.1 mph SSW8.2 kmh SSW 9.4 mph15.1 kmh 30.07 in1018.3 mb 0.00 in0.0 mm 0.00 in0.0 mm 0.00 in0.0 mm
04:00 AM 40.3°F4.6°C 37.9°F3.3°C 91% 4.9 mph S7.9 kmh S 7.6 mph12.2 kmh 30.07 in1018.3 mb 0.00 in0.0 mm 0.00 in0.0 mm 0.00 in0.0 mm
03:45 AM 40.3°F4.6°C 37.9°F3.3°C 91% 4.9 mph S7.9 kmh S 10.7 mph17.2 kmh 30.06 in1017.9 mb 0.00 in0.0 mm 0.00 in0.0 mm 0.00 in0.0 mm
03:30 AM 40.3°F4.6°C 37.9°F3.3°C 91% 5.8 mph SSW9.3 kmh SSW 8.7 mph14.0 kmh 30.06 in1017.9 mb 0.00 in0.0 mm 0.00 in0.0 mm 0.00 in0.0 mm
03:15 AM 40.5°F4.7°C 38.0°F3.3°C 91% 5.8 mph S9.3 kmh S 9.6 mph15.4 kmh 30.07 in1018.3 mb 0.00 in0.0 mm 0.00 in0.0 mm 0.00 in0.0 mm
03:00 AM 40.6°F4.8°C 38.2°F3.4°C 91% 4.7 mph SW7.6 kmh SW 11.2 mph18.0 kmh 30.07 in1018.3 mb 0.00 in0.0 mm 0.00 in0.0 mm 0.00 in0.0 mm
02:45 AM 40.8°F4.9°C 38.4°F3.6°C 91% 4.8 mph SW7.7 kmh SW 8.1 mph13.0 kmh 30.06 in1017.9 mb 0.00 in0.0 mm 0.00 in0.0 mm 0.00 in0.0 mm
02:30 AM 40.8°F4.9°C 38.4°F3.6°C 91% 4.4 mph SSW7.1 kmh SSW 8.1 mph13.0 kmh 30.06 in1017.9 mb 0.00 in0.0 mm 0.00 in0.0 mm 0.00 in0.0 mm
02:15 AM 40.8°F4.9°C 38.4°F3.6°C 91% 4.4 mph SSW7.1 kmh SSW 7.4 mph11.9 kmh 30.06 in1017.9 mb 0.00 in0.0 mm 0.00 in0.0 mm 0.00 in0.0 mm
02:00 AM 40.8°F4.9°C 38.4°F3.6°C 91% 5.8 mph SSW9.3 kmh SSW 10.5 mph16.9 kmh 30.07 in1018.3 mb 0.00 in0.0 mm 0.00 in0.0 mm 0.00 in0.0 mm
01:45 AM 41.0°F5.0°C 38.6°F3.7°C 91% 3.8 mph SSW6.1 kmh SSW 8.3 mph13.4 kmh 30.07 in1018.3 mb 0.00 in0.0 mm 0.00 in0.0 mm 0.00 in0.0 mm
01:30 AM 41.0°F5.0°C 38.6°F3.7°C 91% 3.0 mph SW4.8 kmh SW 4.9 mph7.9 kmh 30.06 in1017.9 mb 0.00 in0.0 mm 0.00 in0.0 mm 0.00 in0.0 mm
01:15 AM 41.2°F5.1°C 38.8°F3.8°C 91% 3.8 mph SW6.1 kmh SW 6.3 mph10.1 kmh 30.07 in1018.3 mb 0.00 in0.0 mm 0.00 in0.0 mm 0.00 in0.0 mm
01:00 AM 41.4°F5.2°C 38.9°F3.8°C 91% 3.0 mph SW4.8 kmh SW 4.7 mph7.6 kmh 30.07 in1018.3 mb 0.00 in0.0 mm 0.00 in0.0 mm 0.00 in0.0 mm
12:45 AM 41.4°F5.2°C 38.9°F3.8°C 91% 2.3 mph SW3.7 kmh SW 4.3 mph6.9 kmh 30.08 in1018.6 mb 0.00 in0.0 mm 0.00 in0.0 mm 0.00 in0.0 mm
12:30 AM 41.4°F5.2°C 38.9°F3.8°C 91% 2.9 mph SW4.7 kmh SW 4.7 mph7.6 kmh 30.08 in1018.6 mb 0.00 in0.0 mm 0.00 in0.0 mm 0.00 in0.0 mm
12:15 AM 41.4°F5.2°C 38.9°F3.8°C 91% 4.0 mph SW6.4 kmh SW 6.5 mph10.5 kmh 30.08 in1018.6 mb 0.00 in0.0 mm 0.00 in0.0 mm 0.00 in0.0 mm
12:00 AM 41.4°F5.2°C 38.9°F3.8°C 91% 3.0 mph SSW4.8 kmh SSW 5.4 mph8.7 kmh 30.08 in1018.6 mb 0.00 in0.0 mm 0.00 in0.0 mm 0.00 in0.0 mm